createdAt,value
2022-09-13T00:00:13.986Z,74.47
2022-09-13T00:03:19.969Z,74.61
2022-09-13T00:06:25.354Z,75.01
2022-09-13T00:09:18.578Z,75.71
2022-09-13T00:12:24.049Z,75.65
2022-09-13T00:15:30.151Z,76.00
2022-09-13T00:18:36.609Z,76.81
2022-09-13T00:21:42.969Z,76.89
2022-09-13T00:24:48.617Z,77.17
2022-09-13T00:27:54.523Z,77.31
2022-09-13T00:31:00.569Z,77.65
2022-09-13T00:34:05.737Z,77.79
2022-09-13T00:37:12.128Z,77.68
2022-09-13T00:40:17.885Z,78.37
2022-09-13T00:43:29.979Z,78.25
2022-09-13T00:46:57.610Z,78.49
2022-09-13T00:50:03.153Z,79.15
2022-09-13T00:53:23.176Z,78.91
2022-09-13T00:56:34.256Z,79.13
2022-09-13T00:59:52.710Z,79.45
2022-09-13T01:03:16.095Z,79.18
2022-09-13T01:06:27.737Z,78.96
2022-09-13T01:09:32.786Z,78.99
2022-09-13T01:13:14.435Z,79.20
2022-09-13T01:16:21.301Z,79.48
2022-09-13T01:19:28.949Z,79.54
2022-09-13T01:23:07.903Z,79.68
2022-09-13T01:26:40.620Z,78.78
2022-09-13T01:30:26.732Z,78.58
2022-09-13T01:33:54.703Z,78.17
2022-09-13T01:37:22.927Z,78.31
2022-09-13T01:40:40.078Z,77.63
2022-09-13T01:44:00.362Z,78.68
2022-09-13T01:47:18.540Z,79.08
2022-09-13T01:50:54.919Z,78.77
2022-09-13T01:54:32.958Z,78.45
2022-09-13T01:57:51.972Z,78.29
2022-09-13T02:01:33.920Z,77.76
2022-09-13T02:04:43.974Z,78.32
2022-09-13T02:07:56.496Z,78.16
2022-09-13T02:11:14.616Z,77.42
2022-09-13T02:14:31.323Z,77.14
2022-09-13T02:17:39.749Z,77.09
2022-09-13T02:20:50.133Z,77.03
2022-09-13T02:23:59.368Z,77.41
2022-09-13T02:27:06.510Z,77.10
2022-09-13T02:30:08.766Z,77.50
2022-09-13T02:33:15.570Z,77.54
2022-09-13T02:36:13.985Z,77.29
2022-09-13T02:39:13.061Z,77.30
2022-09-13T02:42:31.608Z,77.37
2022-09-13T02:45:38.200Z,77.55
2022-09-13T02:48:57.486Z,77.47
2022-09-13T02:52:17.008Z,77.31
2022-09-13T02:55:40.567Z,77.54
2022-09-13T02:58:50.657Z,77.17
2022-09-13T03:01:58.505Z,76.88
2022-09-13T03:05:05.986Z,77.09
2022-09-13T03:08:12.941Z,77.27
2022-09-13T03:11:51.958Z,77.17
2022-09-13T03:15:38.363Z,77.57
2022-09-13T03:19:08.699Z,77.33
2022-09-13T03:22:21.853Z,77.66
2022-09-13T03:25:47.611Z,77.55
2022-09-13T03:29:19.799Z,77.83
2022-09-13T03:32:36.690Z,77.70
2022-09-13T03:35:49.323Z,77.53
2022-09-13T03:39:31.099Z,77.45
2022-09-13T03:42:47.116Z,77.10
2022-09-13T03:45:58.925Z,77.07
2022-09-13T03:49:03.210Z,77.35
2022-09-13T03:52:09.430Z,77.43
2022-09-13T03:55:15.181Z,77.36
2022-09-13T03:58:21.414Z,76.98
2022-09-13T04:01:26.336Z,76.83
2022-09-13T04:04:31.313Z,76.69
2022-09-13T04:07:38.759Z,76.56
2022-09-13T04:10:44.493Z,76.49
2022-09-13T04:13:51.641Z,76.97
2022-09-13T04:16:58.287Z,77.17
2022-09-13T04:20:03.214Z,77.10
2022-09-13T04:23:10.320Z,76.34
2022-09-13T04:26:19.919Z,76.41
2022-09-13T04:29:26.006Z,76.44
2022-09-13T04:32:31.609Z,76.12
2022-09-13T04:35:37.547Z,75.92
2022-09-13T04:38:44.317Z,75.40
2022-09-13T04:41:51.929Z,74.77
2022-09-13T04:44:57.310Z,74.23
2022-09-13T04:48:10.042Z,74.40
2022-09-13T04:51:21.387Z,74.16
2022-09-13T04:54:28.608Z,74.18
2022-09-13T04:57:29.414Z,74.49
2022-09-13T05:00:23.006Z,75.35
2022-09-13T05:03:28.776Z,75.57
2022-09-13T05:06:36.438Z,75.14
2022-09-13T05:09:42.203Z,75.12
2022-09-13T05:12:49.123Z,74.76
2022-09-13T05:15:55.706Z,74.61
2022-09-13T05:19:04.374Z,74.62
2022-09-13T05:22:11.814Z,74.04
2022-09-13T05:25:21.088Z,73.79
2022-09-13T05:28:25.711Z,73.62
2022-09-13T05:31:37.567Z,74.01
2022-09-13T05:34:43.023Z,72.53
2022-09-13T05:37:49.151Z,72.20
2022-09-13T05:40:54.894Z,71.85
2022-09-13T05:44:10.324Z,71.56
2022-09-13T05:47:08.110Z,71.07
2022-09-13T05:50:27.495Z,70.88
2022-09-13T05:53:20.509Z,70.31
2022-09-13T05:56:29.352Z,70.25
2022-09-13T05:59:34.386Z,70.35
2022-09-13T06:02:39.661Z,70.34
2022-09-13T06:05:45.446Z,69.87
2022-09-13T06:08:51.345Z,69.62
2022-09-13T06:11:57.764Z,69.52
2022-09-13T06:15:04.204Z,69.06
2022-09-13T06:18:12.066Z,68.78
2022-09-13T06:21:29.099Z,68.75
2022-09-13T06:24:33.600Z,68.66
2022-09-13T06:27:39.604Z,68.21
2022-09-13T06:30:44.353Z,67.38
2022-09-13T06:33:51.397Z,67.07
2022-09-13T06:37:00.985Z,67.34
2022-09-13T06:40:08.778Z,66.90
2022-09-13T06:43:14.193Z,66.45
2022-09-13T06:46:26.875Z,66.07
2022-09-13T06:49:33.300Z,65.89
2022-09-13T06:52:39.823Z,65.51
2022-09-13T06:55:45.003Z,64.81
2022-09-13T06:58:51.100Z,65.32
2022-09-13T07:01:58.361Z,65.19
2022-09-13T07:05:03.295Z,64.72
2022-09-13T07:08:09.044Z,65.33
2022-09-13T07:11:16.482Z,65.26
2022-09-13T07:14:22.215Z,65.57
2022-09-13T07:17:31.184Z,64.92
2022-09-13T07:20:33.379Z,65.46
2022-09-13T07:23:38.843Z,64.89
2022-09-13T07:26:43.887Z,64.17
2022-09-13T07:29:50.351Z,64.06
2022-09-13T07:32:58.009Z,64.52
2022-09-13T07:36:10.913Z,64.61
2022-09-13T07:39:22.420Z,64.02
2022-09-13T07:42:28.568Z,64.11
2022-09-13T07:45:40.759Z,63.95
2022-09-13T07:48:50.075Z,62.69
2022-09-13T07:51:58.684Z,61.94
2022-09-13T07:55:05.072Z,61.14
2022-09-13T07:58:12.368Z,61.13
2022-09-13T08:01:37.508Z,61.31
2022-09-13T08:04:46.273Z,60.35
2022-09-13T08:07:54.481Z,60.28
2022-09-13T08:10:59.982Z,59.86
2022-09-13T08:14:05.329Z,59.43
2022-09-13T08:17:11.410Z,60.13
2022-09-13T08:20:16.599Z,59.79
2022-09-13T08:23:22.182Z,60.14
2022-09-13T08:26:28.913Z,60.70
2022-09-13T08:29:33.640Z,58.06
2022-09-13T08:32:38.603Z,57.28
2022-09-13T08:35:45.322Z,56.64
2022-09-13T08:38:51.394Z,56.04
2022-09-13T08:42:06.939Z,55.10
2022-09-13T08:45:13.795Z,55.24
2022-09-13T08:48:22.449Z,54.12
2022-09-13T08:51:44.916Z,54.13
2022-09-13T08:54:52.040Z,53.54
2022-09-13T08:58:20.950Z,53.52
2022-09-13T09:01:46.056Z,52.77
2022-09-13T09:05:02.180Z,52.12
2022-09-13T09:08:23.589Z,52.82
2022-09-13T09:12:07.404Z,53.27
2022-09-13T09:15:13.400Z,52.83
2022-09-13T09:18:37.272Z,51.99
2022-09-13T09:21:42.781Z,51.34
2022-09-13T09:24:50.481Z,50.68
2022-09-13T09:27:57.869Z,50.51
2022-09-13T09:31:25.790Z,49.67
2022-09-13T09:34:59.635Z,48.94
2022-09-13T09:38:40.293Z,48.69
2022-09-13T09:41:48.954Z,47.22
2022-09-13T09:44:56.340Z,47.58
2022-09-13T09:48:08.354Z,47.58
2022-09-13T09:51:14.817Z,47.55
2022-09-13T09:54:20.030Z,48.05
2022-09-13T09:57:27.250Z,48.40
2022-09-13T10:00:36.598Z,48.32
2022-09-13T10:03:48.121Z,48.23
2022-09-13T10:06:59.310Z,48.31
2022-09-13T10:10:18.795Z,49.31
2022-09-13T10:13:34.526Z,50.13
2022-09-13T10:16:45.437Z,50.22
2022-09-13T10:19:53.567Z,50.16
2022-09-13T10:22:59.396Z,50.50
2022-09-13T10:26:07.913Z,49.36
2022-09-13T10:29:22.672Z,48.61
2022-09-13T10:32:27.826Z,47.73
2022-09-13T10:35:33.357Z,47.04
2022-09-13T10:38:55.613Z,46.27
2022-09-13T10:42:12.425Z,46.00
2022-09-13T10:45:21.799Z,45.46
2022-09-13T10:48:31.659Z,45.58
2022-09-13T10:51:47.818Z,45.43
2022-09-13T10:54:54.947Z,45.25
2022-09-13T10:58:09.967Z,45.05
2022-09-13T11:01:40.885Z,44.75
2022-09-13T11:05:05.164Z,43.95
2022-09-13T11:08:41.568Z,42.69
2022-09-13T11:12:11.009Z,42.87
2022-09-13T11:15:59.967Z,42.12
2022-09-13T11:19:33.689Z,41.92
2022-09-13T11:23:05.239Z,42.27
2022-09-13T11:26:22.538Z,41.77
2022-09-13T11:30:01.973Z,41.53
2022-09-13T11:33:26.534Z,41.60
2022-09-13T11:37:01.367Z,41.31
2022-09-13T11:40:34.962Z,41.68
2022-09-13T11:44:01.324Z,41.91
2022-09-13T11:47:48.283Z,42.01
2022-09-13T11:51:05.712Z,42.12
2022-09-13T11:54:34.924Z,41.20
2022-09-13T11:57:45.557Z,40.83
2022-09-13T12:00:55.900Z,41.29
2022-09-13T12:04:17.910Z,41.87
2022-09-13T12:07:30.228Z,42.75
2022-09-13T12:10:50.921Z,43.04
2022-09-13T12:14:05.322Z,43.20
2022-09-13T12:16:55.523Z,43.76
2022-09-13T12:19:54.107Z,43.92
2022-09-13T12:22:49.366Z,44.19
2022-09-13T12:26:32.712Z,44.70
2022-09-13T12:30:01.709Z,45.27
2022-09-13T12:33:00.391Z,46.01
2022-09-13T12:36:19.894Z,46.01
2022-09-13T12:40:00.386Z,46.50
2022-09-13T12:43:33.532Z,46.68
2022-09-13T12:46:58.453Z,47.01
2022-09-13T12:50:42.935Z,47.21
2022-09-13T12:54:03.091Z,47.84
2022-09-13T12:57:46.163Z,47.70
2022-09-13T13:01:21.870Z,47.91
2022-09-13T13:04:33.350Z,47.29
2022-09-13T13:07:39.145Z,47.27
2022-09-13T13:10:48.068Z,47.38
2022-09-13T13:14:00.841Z,46.84
2022-09-13T13:17:05.676Z,46.88
2022-09-13T13:20:10.575Z,47.23
2022-09-13T13:23:38.741Z,47.73
2022-09-13T13:27:11.365Z,47.60
2022-09-13T13:30:56.394Z,47.84
2022-09-13T13:34:06.947Z,48.43
2022-09-13T13:37:25.652Z,48.31
2022-09-13T13:40:39.418Z,48.16
2022-09-13T13:43:48.659Z,48.12
2022-09-13T13:46:55.010Z,47.54
2022-09-13T13:50:16.501Z,47.09
2022-09-13T13:53:42.266Z,47.21
2022-09-13T13:57:02.701Z,47.40
2022-09-13T14:00:20.730Z,47.73
2022-09-13T14:04:00.031Z,47.57
2022-09-13T14:07:54.224Z,47.22
2022-09-13T14:11:13.634Z,46.96
2022-09-13T14:14:40.494Z,47.10
2022-09-13T14:18:08.989Z,47.30
2022-09-13T14:21:17.103Z,47.39
2022-09-13T14:24:35.298Z,47.81
2022-09-13T14:27:51.433Z,47.95
2022-09-13T14:30:56.880Z,47.94
2022-09-13T14:34:02.916Z,47.45
2022-09-13T14:37:13.663Z,47.64
2022-09-13T14:40:43.893Z,47.21
2022-09-13T14:43:58.124Z,47.40
2022-09-13T14:47:13.238Z,47.07
2022-09-13T14:50:39.993Z,47.29
2022-09-13T14:53:57.200Z,48.30
2022-09-13T14:57:08.849Z,48.66
2022-09-13T15:00:18.646Z,48.84
2022-09-13T15:03:30.930Z,49.55
2022-09-13T15:06:45.228Z,49.76
2022-09-13T15:09:50.405Z,49.81
2022-09-13T15:13:23.290Z,50.43
2022-09-13T15:16:44.344Z,51.14
2022-09-13T15:20:05.328Z,51.26
2022-09-13T15:23:09.890Z,51.71
2022-09-13T15:26:25.733Z,52.29
2022-09-13T15:29:33.633Z,52.87
2022-09-13T15:32:56.263Z,53.11
2022-09-13T15:36:08.618Z,53.78
2022-09-13T15:39:30.170Z,54.66
2022-09-13T15:42:36.569Z,54.92
2022-09-13T15:45:42.176Z,55.03
2022-09-13T15:48:52.663Z,54.88
2022-09-13T15:52:01.305Z,54.99
2022-09-13T15:55:10.660Z,55.89
2022-09-13T15:58:22.627Z,56.28
2022-09-13T16:01:31.022Z,56.79
2022-09-13T16:04:36.737Z,56.60
2022-09-13T16:07:43.130Z,56.53
2022-09-13T16:10:48.232Z,56.47
2022-09-13T16:13:53.852Z,56.35
2022-09-13T16:16:59.065Z,56.23
2022-09-13T16:20:04.247Z,57.08
2022-09-13T16:23:09.990Z,57.30
2022-09-13T16:26:14.718Z,57.25
2022-09-13T16:29:12.738Z,57.26
2022-09-13T16:32:18.927Z,57.21
2022-09-13T16:35:25.553Z,57.44
2022-09-13T16:38:30.687Z,57.99
2022-09-13T16:41:38.766Z,58.26
2022-09-13T16:44:45.441Z,58.01
2022-09-13T16:47:50.543Z,57.95
2022-09-13T16:50:57.076Z,58.04
2022-09-13T16:54:03.502Z,58.05
2022-09-13T16:57:10.684Z,58.37
2022-09-13T17:00:18.922Z,58.67
2022-09-13T17:03:24.482Z,58.65
2022-09-13T17:06:32.414Z,58.77
2022-09-13T17:09:37.891Z,59.06
2022-09-13T17:12:44.434Z,59.10
2022-09-13T17:15:56.575Z,59.04
2022-09-13T17:19:01.390Z,58.42
2022-09-13T17:22:06.881Z,59.23
2022-09-13T17:25:12.891Z,59.34
2022-09-13T17:28:19.342Z,59.54
2022-09-13T17:31:25.771Z,59.44
2022-09-13T17:34:31.680Z,59.09
2022-09-13T17:37:37.902Z,59.32
2022-09-13T17:40:44.535Z,59.56
2022-09-13T17:43:51.226Z,59.85
2022-09-13T17:46:57.679Z,59.92
2022-09-13T17:50:03.490Z,59.94
2022-09-13T17:53:11.108Z,60.08
2022-09-13T17:56:17.317Z,59.58
2022-09-13T17:59:27.817Z,59.64
2022-09-13T18:02:35.328Z,59.64
2022-09-13T18:05:41.889Z,59.65
2022-09-13T18:08:49.032Z,60.22
2022-09-13T18:11:55.270Z,60.41
2022-09-13T18:15:01.018Z,60.69
2022-09-13T18:18:07.579Z,60.58
2022-09-13T18:21:14.026Z,60.74
2022-09-13T18:24:19.821Z,60.87
2022-09-13T18:27:26.672Z,60.71
2022-09-13T18:30:32.060Z,60.63
2022-09-13T18:33:37.678Z,60.86
2022-09-13T18:36:44.493Z,60.78
2022-09-13T18:39:50.535Z,60.65
2022-09-13T18:42:55.790Z,60.78
2022-09-13T18:46:11.949Z,60.93
2022-09-13T18:49:17.160Z,61.33
2022-09-13T18:52:23.240Z,61.57
2022-09-13T18:55:28.768Z,61.68
2022-09-13T18:58:27.936Z,61.85
2022-09-13T19:01:39.271Z,62.03
2022-09-13T19:04:44.934Z,62.13
2022-09-13T19:07:50.553Z,62.31
2022-09-13T19:10:56.739Z,62.61
2022-09-13T19:14:03.104Z,62.37
2022-09-13T19:17:11.687Z,62.91
2022-09-13T19:20:17.297Z,62.83
2022-09-13T19:23:33.783Z,63.00
2022-09-13T19:26:37.750Z,63.43
2022-09-13T19:29:42.959Z,64.08
2022-09-13T19:32:48.740Z,64.36
2022-09-13T19:35:55.451Z,64.49
2022-09-13T19:39:00.928Z,64.53
2022-09-13T19:42:07.593Z,64.53
2022-09-13T19:45:13.446Z,64.54
2022-09-13T19:48:38.077Z,64.43
2022-09-13T19:51:27.919Z,64.18
2022-09-13T19:54:34.277Z,64.43
2022-09-13T19:57:44.336Z,64.52
2022-09-13T20:00:46.815Z,64.58
2022-09-13T20:03:53.118Z,64.65
2022-09-13T20:07:06.817Z,64.58
2022-09-13T20:10:11.495Z,64.50
2022-09-13T20:13:18.608Z,64.90
2022-09-13T20:16:32.184Z,65.14
2022-09-13T20:19:43.781Z,65.07
2022-09-13T20:22:46.948Z,65.55
2022-09-13T20:25:53.439Z,65.43
2022-09-13T20:28:59.990Z,65.62
2022-09-13T20:32:06.872Z,65.29
2022-09-13T20:35:12.712Z,65.25
2022-09-13T20:38:18.093Z,65.72
2022-09-13T20:41:26.784Z,65.86
2022-09-13T20:44:32.140Z,65.84
2022-09-13T20:47:38.428Z,65.99
2022-09-13T20:50:45.539Z,66.35
2022-09-13T20:53:51.879Z,66.77
2022-09-13T20:56:57.700Z,67.03
2022-09-13T20:59:57.645Z,67.09
2022-09-13T21:03:03.401Z,67.06
2022-09-13T21:06:09.431Z,67.88
2022-09-13T21:09:15.427Z,68.41
2022-09-13T21:12:23.065Z,68.55
2022-09-13T21:15:29.653Z,69.08
2022-09-13T21:18:37.688Z,68.99
2022-09-13T21:21:47.346Z,68.88
2022-09-13T21:24:52.898Z,69.41
2022-09-13T21:27:59.940Z,69.34
2022-09-13T21:31:16.099Z,69.35
2022-09-13T21:34:31.119Z,69.43
2022-09-13T21:37:37.100Z,69.79
2022-09-13T21:40:43.148Z,70.23
2022-09-13T21:43:48.661Z,70.43
2022-09-13T21:46:54.951Z,70.20
2022-09-13T21:49:59.676Z,69.96
2022-09-13T21:53:06.603Z,70.45
2022-09-13T21:56:16.531Z,71.84
2022-09-13T21:59:30.282Z,71.75
2022-09-13T22:02:36.033Z,71.71
2022-09-13T22:05:41.702Z,72.27
2022-09-13T22:08:53.874Z,72.51
2022-09-13T22:12:01.684Z,72.49
2022-09-13T22:15:07.836Z,72.20
2022-09-13T22:18:13.662Z,71.67
2022-09-13T22:21:25.453Z,72.44
2022-09-13T22:24:34.138Z,72.12
2022-09-13T22:27:39.393Z,71.13
2022-09-13T22:30:45.619Z,71.11
2022-09-13T22:33:51.218Z,70.85
2022-09-13T22:36:57.127Z,70.80
2022-09-13T22:40:04.927Z,70.50
2022-09-13T22:43:11.532Z,70.55
2022-09-13T22:46:33.817Z,69.83
2022-09-13T22:49:39.010Z,69.58
2022-09-13T22:52:44.964Z,69.52
2022-09-13T22:55:50.496Z,69.91
2022-09-13T22:58:56.107Z,69.97
2022-09-13T23:02:02.763Z,70.13
2022-09-13T23:05:07.594Z,70.03
2022-09-13T23:08:13.493Z,69.99
2022-09-13T23:11:37.240Z,70.68
2022-09-13T23:14:43.211Z,70.64
2022-09-13T23:17:48.806Z,70.79
2022-09-13T23:20:55.388Z,70.95
2022-09-13T23:24:00.647Z,70.78
2022-09-13T23:27:09.104Z,70.41
2022-09-13T23:30:14.459Z,70.88
2022-09-13T23:33:21.119Z,70.99
2022-09-13T23:36:29.283Z,70.42
2022-09-13T23:39:28.618Z,71.22
2022-09-13T23:42:34.701Z,71.00
2022-09-13T23:45:39.670Z,71.72
2022-09-13T23:48:44.751Z,72.05
2022-09-13T23:51:50.060Z,71.87
2022-09-13T23:54:55.464Z,71.76
2022-09-13T23:58:00.761Z,71.69
